Time;durP1;ratioP1;P1;durP2;ratioP2;P2;SDS_P1;SDS_P2;PMS_P1;PMS_P2;Temp;Humidity;BMP_temperature;BMP_pressure;BME280_temperature;BME280_humidity;BME280_pressure;Samples;Min_cycle;Max_cycle;Signal;HPM_P1;HPM_P2
2022/04/21 05:32:36;;;;;;;5.95;2.10;;;;;;;10.53;49.65;97872.22;5115072;27;20369;-61
2022/04/21 05:35:02;;;;;;;4.90;2.17;;;;;;;10.59;49.31;97873.38;5069669;28;20204;-62
2022/04/21 05:37:28;;;;;;;6.38;2.10;;;;;;;10.66;48.56;97878.69;5081474;28;20165;-60
2022/04/21 05:39:54;;;;;;;5.15;2.00;;;;;;;10.75;49.17;97880.31;5080782;28;20110;-59
2022/04/21 05:42:23;;;;;;;5.00;2.10;;;;;;;10.82;48.54;97880.50;5077801;28;20028;-60
2022/04/21 05:44:51;;;;;;;5.43;1.98;;;;;;;10.85;47.55;97883.56;5098226;28;20027;-59
2022/04/21 05:47:16;;;;;;;6.30;1.85;;;;;;;10.88;46.97;97875.47;5067563;28;20089;-57
2022/04/21 05:49:42;;;;;;;6.07;1.90;;;;;;;10.92;46.49;97876.75;5081100;28;20023;-61
2022/04/21 05:52:08;;;;;;;4.70;1.70;;;;;;;10.88;46.30;97875.47;5078109;28;20028;-58
2022/04/21 05:54:34;;;;;;;4.75;2.10;;;;;;;10.87;46.50;97875.63;5097705;28;20027;-60
2022/04/21 05:57:00;;;;;;;6.72;2.03;;;;;;;10.83;45.43;97880.34;5090317;28;20027;-58
2022/04/21 05:59:26;;;;;;;7.30;2.80;;;;;;;10.82;46.28;97878.69;5080571;28;20035;-60
2022/04/21 06:01:51;;;;;;;4.32;1.70;;;;;;;10.87;45.48;97873.81;5080891;28;20032;-59
2022/04/21 06:04:21;;;;;;;5.47;1.98;;;;;;;10.92;45.85;97881.16;5078693;28;20363;-60
2022/04/21 06:06:46;;;;;;;5.43;1.80;;;;;;;10.94;45.85;97884.38;5081264;28;20036;-59
2022/04/21 06:09:12;;;;;;;5.38;1.90;;;;;;;11.01;46.70;97879.34;5090406;28;20028;-59
2022/04/21 06:11:37;;;;;;;6.68;2.10;;;;;;;10.98;45.78;97879.66;5081283;28;20040;-60
2022/04/21 06:14:03;;;;;;;5.25;1.73;;;;;;;10.94;44.90;97871.38;5090435;28;20030;-59
2022/04/21 06:16:28;;;;;;;5.65;2.08;;;;;;;11.09;44.57;97876.72;5080876;28;20506;-59
2022/04/21 06:18:54;;;;;;;6.03;1.98;;;;;;;11.03;44.06;97867.00;5070721;28;20036;-58
2022/04/21 06:21:19;;;;;;;4.97;1.80;;;;;;;11.08;45.12;97878.50;5086433;28;20024;-58
2022/04/21 06:23:45;;;;;;;6.10;1.95;;;;;;;11.00;45.25;97877.72;5097503;28;20024;-59
2022/04/21 06:26:11;;;;;;;3.97;1.60;;;;;;;11.05;45.19;97885.84;5079082;28;20122;-59
2022/04/21 06:28:36;;;;;;;4.93;1.80;;;;;;;11.07;44.49;97882.09;5079623;28;20018;-58
2022/04/21 06:31:02;;;;;;;5.00;1.77;;;;;;;11.02;45.78;97888.75;5096116;28;20035;-59
2022/04/21 06:33:31;;;;;;;5.22;1.90;;;;;;;11.00;46.04;97868.09;5097593;28;20107;-59
2022/04/21 06:35:58;;;;;;;7.40;2.20;;;;;;;11.12;47.06;97879.81;5091885;28;20043;-58
2022/04/21 06:38:24;;;;;;;4.22;1.90;;;;;;;11.09;45.38;97882.72;5094129;28;20135;-59
2022/04/21 06:40:49;;;;;;;8.90;1.80;;;;;;;11.14;45.91;97884.84;5097017;28;20386;-58
2022/04/21 06:48:45;;;;;;;6.00;2.10;;;;;;;10.88;45.44;97880.66;5077359;28;20214;-59
2022/04/21 06:51:11;;;;;;;6.35;2.00;;;;;;;10.78;44.97;97885.22;5071048;28;20135;-59
2022/04/21 06:53:37;;;;;;;5.65;2.10;;;;;;;10.76;46.20;97880.16;5066659;28;20119;-61
2022/04/21 06:56:04;;;;;;;8.07;2.10;;;;;;;10.78;46.73;97886.00;5064947;28;20500;-58
2022/04/21 06:58:29;;;;;;;5.22;1.95;;;;;;;10.72;45.61;97880.66;5083141;28;20048;-59
2022/04/21 07:00:54;;;;;;;4.75;1.92;;;;;;;10.83;46.19;97880.34;5064087;28;20076;-60
2022/04/21 07:03:20;;;;;;;5.65;1.92;;;;;;;10.93;45.17;97883.59;5066572;28;20026;-59
2022/04/21 07:05:45;;;;;;;4.88;1.80;;;;;;;10.94;44.06;97877.38;5082076;28;20024;-60
2022/04/21 07:08:11;;;;;;;6.25;2.15;;;;;;;10.69;44.87;97848.00;5063591;28;20364;-59
2022/04/21 07:10:36;;;;;;;13.30;2.50;;;;;;;11.02;45.39;97883.56;5083293;28;20486;-60
2022/04/21 07:13:09;;;;;;;21.95;2.88;;;;;;;11.10;47.00;97886.97;5065290;28;20067;-59
2022/04/21 07:15:35;;;;;;;6.30;2.38;;;;;;;11.05;46.39;97891.84;5065619;28;20093;-62
2022/04/21 07:18:00;;;;;;;4.55;2.00;;;;;;;11.01;46.96;97879.34;5081824;28;20028;-59
2022/04/21 07:20:26;;;;;;;4.85;2.00;;;;;;;10.84;47.33;97861.16;5064395;28;20378;-57
2022/04/21 07:22:51;;;;;;;4.93;1.85;;;;;;;10.76;46.90;97876.75;5064527;28;20020;-59
2022/04/21 07:25:16;;;;;;;4.85;1.77;;;;;;;10.83;47.25;97882.94;5082121;28;20020;-59
2022/04/21 07:27:42;;;;;;;5.57;1.95;;;;;;;10.74;46.10;97874.31;5065835;28;20471;-59
2022/04/21 07:30:08;;;;;;;4.75;1.80;;;;;;;10.44;44.67;97841.19;5065294;28;20416;-58
2022/04/21 07:32:34;;;;;;;4.57;2.00;;;;;;;10.64;45.64;97875.47;5083104;28;20028;-61
2022/04/21 07:34:59;;;;;;;5.10;1.73;;;;;;;10.68;46.52;97867.19;5065055;28;20101;-61
2022/04/21 07:37:25;;;;;;;5.57;1.90;;;;;;;10.72;47.60;97867.66;5066069;28;20477;-59
2022/04/21 07:39:50;;;;;;;4.93;2.10;;;;;;;10.66;46.75;97865.72;5082372;28;20028;-57
2022/04/21 07:42:16;;;;;;;5.93;2.10;;;;;;;10.66;47.72;97863.94;5061384;28;20023;-57
2022/04/21 07:44:41;;;;;;;5.10;1.90;;;;;;;10.64;46.41;97867.66;5082598;28;20099;-59
2022/04/21 07:47:08;;;;;;;11.82;2.17;;;;;;;10.66;46.97;97860.50;5079189;28;20028;-58
2022/04/21 07:49:46;;;;;;;6.63;1.92;;;;;;;10.64;46.82;97857.25;5066595;28;20367;-57
2022/04/21 07:55:24;;;;;;;6.22;2.08;;;;;;;10.63;45.36;97850.44;5071394;28;20035;-57
2022/04/21 07:57:51;;;;;;;4.25;1.70;;;;;;;10.63;45.60;97861.66;5076395;28;20035;-58
2022/04/21 08:00:18;;;;;;;41.63;3.78;;;;;;;10.70;45.84;97867.84;5066490;28;20023;-60
2022/04/21 08:02:45;;;;;;;21.05;2.63;;;;;;;10.70;46.24;97857.44;5082788;28;20085;-57
2022/04/21 08:05:11;;;;;;;10.77;2.50;;;;;;;10.75;46.38;97862.97;5062354;28;20020;-60
2022/04/21 08:07:37;;;;;;;55.28;4.38;;;;;;;10.75;46.43;97856.91;5082559;28;20059;-60
2022/04/21 08:10:06;;;;;;;5.57;1.70;;;;;;;10.69;46.88;97862.78;5080960;28;20052;-58
2022/04/21 08:12:39;;;;;;;6.88;2.20;;;;;;;10.72;47.27;97858.06;5062447;28;20133;-60
2022/04/21 08:15:07;;;;;;;8.52;2.03;;;;;;;10.74;46.65;97848.31;5065475;28;20063;-59
2022/04/21 08:17:33;;;;;;;5.07;1.88;;;;;;;10.70;46.47;97841.03;5063219;28;20036;-60
2022/04/21 08:19:58;;;;;;;5.43;1.98;;;;;;;10.76;45.38;97845.56;5065301;28;20028;-58
2022/04/21 08:22:23;;;;;;;5.18;1.73;;;;;;;10.69;45.95;97840.19;5063731;28;20028;-58
2022/04/21 08:33:00;;;;;;;4.25;1.60;;;;;;;10.85;47.39;97848.97;5079955;28;20100;-56
2022/04/21 08:35:26;;;;;;;5.50;2.10;;;;;;;10.83;47.04;97848.31;5063749;28;20036;-58
2022/04/21 08:37:51;;;;;;;6.38;1.98;;;;;;;10.80;47.43;97841.66;5078298;28;20028;-61
2022/04/21 08:40:18;;;;;;;7.65;2.13;;;;;;;10.85;47.97;97838.56;5064668;28;20455;-61
2022/04/21 08:42:44;;;;;;;5.85;2.00;;;;;;;10.74;48.14;97817.13;5073037;28;20745;-59
2022/04/21 08:45:10;;;;;;;6.30;1.90;;;;;;;10.88;48.12;97836.44;5059003;28;20062;-59
2022/04/21 08:47:36;;;;;;;4.72;2.20;;;;;;;10.85;47.64;97835.97;5063590;28;20533;-60
2022/04/21 08:50:07;;;;;;;6.03;2.20;;;;;;;10.88;48.03;97835.63;5079012;28;20024;-61
2022/04/21 08:52:34;;;;;;;6.30;2.05;;;;;;;10.98;47.81;97838.06;5064197;28;20032;-60
2022/04/21 08:55:00;;;;;;;6.25;2.22;;;;;;;10.96;48.06;97841.63;5055325;28;20024;-58
2022/04/21 08:57:26;;;;;;;5.80;2.20;;;;;;;10.95;48.50;97842.63;5080350;28;20028;-59
2022/04/21 08:59:52;;;;;;;7.03;2.28;;;;;;;10.95;48.64;97846.97;5075501;28;20126;-59
2022/04/21 09:02:18;;;;;;;6.18;2.30;;;;;;;10.98;48.30;97854.47;5081204;28;20028;-58
2022/04/21 09:04:43;;;;;;;11.35;2.67;;;;;;;11.01;47.55;97850.72;5074498;28;20035;-59
2022/04/21 09:07:20;;;;;;;7.38;2.00;;;;;;;10.99;47.83;97850.06;5060629;28;20032;-59
2022/04/21 09:10:07;;;;;;;4.78;2.13;;;;;;;11.07;47.76;97847.47;5083752;28;20024;-60
2022/04/21 09:12:34;;;;;;;4.95;2.13;;;;;;;10.74;47.00;97796.31;5061924;28;20035;-60
2022/04/21 09:15:08;;;;;;;4.45;1.90;;;;;;;11.05;47.82;97844.22;5079467;28;20119;-60
2022/04/21 09:17:47;;;;;;;9.50;2.17;;;;;;;11.02;47.47;97840.13;5063344;28;20040;-60
2022/04/21 09:20:17;;;;;;;12.98;2.60;;;;;;;11.15;47.56;97858.66;5076475;28;20020;-64
2022/04/21 09:22:54;;;;;;;4.78;2.15;;;;;;;11.38;47.13;97849.31;5078174;28;20080;-61
2022/04/21 09:25:24;;;;;;;6.00;1.77;;;;;;;11.53;47.09;97847.63;5073967;28;20020;-61
2022/04/21 09:27:50;;;;;;;5.43;2.30;;;;;;;11.62;47.44;97843.19;5074928;28;20052;-61
2022/04/21 09:30:17;;;;;;;4.55;2.05;;;;;;;11.74;46.29;97841.84;5079585;28;20112;-58
2022/04/21 09:32:52;;;;;;;5.53;2.03;;;;;;;11.78;46.61;97847.53;5078665;28;20032;-61
2022/04/21 09:35:17;;;;;;;4.75;2.13;;;;;;;11.93;45.04;97845.81;5079677;28;20130;-60
2022/04/21 09:37:50;;;;;;;5.35;2.13;;;;;;;11.99;46.01;97850.38;5061488;28;20056;-61
2022/04/21 09:40:17;;;;;;;5.80;2.30;;;;;;;11.95;45.71;97846.47;5080265;28;20129;-59
2022/04/21 09:42:43;;;;;;;6.32;2.30;;;;;;;11.98;45.44;97848.72;5070918;28;20036;-62
2022/04/21 09:47:54;;;;;;;8.25;2.88;;;;;;;12.04;45.50;97836.81;5077033;28;20094;-60
2022/04/21 09:50:21;;;;;;;6.88;2.40;;;;;;;11.99;46.32;97803.47;5060485;28;20031;-58
2022/04/21 09:52:52;;;;;;;6.15;2.50;;;;;;;12.30;45.41;97818.22;5064104;28;20028;-59
2022/04/21 09:55:25;;;;;;;7.97;2.30;;;;;;;12.32;45.20;97813.66;5054386;28;20021;-59
2022/04/21 09:58:10;;;;;;;5.43;2.05;;;;;;;12.25;46.51;97813.53;5051624;28;20063;-59
2022/04/21 10:00:37;;;;;;;5.80;2.10;;;;;;;12.14;45.83;97776.63;5076974;28;20083;-59
2022/04/21 10:03:04;;;;;;;5.95;2.00;;;;;;;12.08;46.69;97815.47;5063442;28;20051;-59
2022/04/21 10:05:33;;;;;;;5.30;2.42;;;;;;;12.08;47.23;97799.81;5070902;28;20063;-60
2022/04/21 10:08:08;;;;;;;4.22;1.88;;;;;;;12.05;48.24;97800.16;5063490;28;20614;-59
2022/04/21 10:10:35;;;;;;;7.68;2.30;;;;;;;11.95;46.92;97802.19;5059010;28;20137;-60
2022/04/21 10:13:02;;;;;;;4.57;2.05;;;;;;;11.79;47.96;97786.63;5061243;28;20042;-57
2022/04/21 10:15:29;;;;;;;5.85;2.33;;;;;;;11.28;48.42;97719.38;5078549;28;20028;-58
2022/04/21 10:17:55;;;;;;;7.72;2.40;;;;;;;11.96;48.03;97800.41;5076823;28;20028;-58
2022/04/21 10:20:22;;;;;;;6.10;2.40;;;;;;;11.86;48.03;97764.13;5067552;28;20020;-58
2022/04/21 10:22:49;;;;;;;7.47;2.60;;;;;;;12.10;47.51;97799.63;5083224;28;20027;-58
2022/04/21 10:25:14;;;;;;;6.07;2.40;;;;;;;12.21;48.00;97803.63;5083467;28;20036;-58
2022/04/21 10:27:46;;;;;;;6.63;2.30;;;;;;;12.35;47.13;97794.25;5082003;28;20035;-58
2022/04/21 10:30:19;;;;;;;4.85;2.15;;;;;;;12.14;46.64;97795.72;5060986;28;20019;-60
2022/04/21 10:32:52;;;;;;;6.30;2.42;;;;;;;12.05;47.48;97801.97;5074513;28;20123;-59
2022/04/21 10:35:40;;;;;;;4.65;2.10;;;;;;;12.32;46.04;97808.44;5067080;28;20058;-57
2022/04/21 10:38:23;;;;;;;6.70;2.88;;;;;;;12.43;45.34;97799.38;5079080;28;20024;-57
2022/04/21 10:41:07;;;;;;;5.55;2.45;;;;;;;12.43;46.08;97801.97;5064133;28;20067;-59
2022/04/21 10:43:48;;;;;;;5.75;2.30;;;;;;;12.18;46.80;97759.69;5083854;28;20031;-59
2022/04/21 10:46:21;;;;;;;5.13;2.70;;;;;;;12.34;45.19;97792.59;5080033;28;20501;-59
2022/04/21 10:48:47;;;;;;;5.63;2.60;;;;;;;12.43;46.29;97791.53;5066230;28;20136;-63
2022/04/21 10:51:31;;;;;;;6.68;2.58;;;;;;;12.35;46.68;97797.66;5067057;28;20123;-58
2022/04/21 10:59:29;;;;;;;9.02;2.97;;;;;;;12.54;45.26;97792.91;5081320;28;20116;-59
2022/04/21 11:01:54;;;;;;;6.65;2.67;;;;;;;12.60;44.98;97800.06;5076268;28;20020;-59
2022/04/21 11:04:22;;;;;;;6.40;2.53;;;;;;;12.49;45.96;97759.56;5067742;28;20022;-60
2022/04/21 11:06:54;;;;;;;7.43;3.30;;;;;;;12.87;45.85;97802.06;5083377;28;20024;-59
2022/04/21 11:09:39;;;;;;;7.93;3.15;;;;;;;12.94;46.41;97807.38;5066198;28;20133;-61
2022/04/21 11:12:06;;;;;;;6.75;2.75;;;;;;;13.01;45.25;97802.22;5066693;28;20032;-61
2022/04/21 11:14:33;;;;;;;5.82;2.70;;;;;;;13.10;45.52;97806.38;5080059;28;20028;-59
2022/04/21 11:17:02;;;;;;;5.85;3.15;;;;;;;13.13;44.99;97813.84;5079473;28;20108;-61
2022/04/21 11:20:00;;;;;;;5.83;3.00;;;;;;;13.07;44.84;97825.81;5082762;28;20027;-58
2022/04/21 11:22:40;;;;;;;6.65;3.00;;;;;;;13.16;45.98;97812.66;5079027;28;20368;-58
2022/04/21 11:25:06;;;;;;;5.20;2.60;;;;;;;12.98;46.89;97810.44;5084091;28;20032;-60
2022/04/21 11:27:34;;;;;;;5.50;2.80;;;;;;;12.53;47.23;97818.19;5081844;28;20028;-59
2022/04/21 11:30:11;;;;;;;8.25;3.55;;;;;;;12.53;46.37;97818.19;5082487;28;20085;-59
2022/04/21 11:32:37;;;;;;;9.65;3.75;;;;;;;12.45;47.39;97821.69;5076573;28;20117;-60
2022/04/21 11:35:09;;;;;;;7.35;2.92;;;;;;;12.60;48.46;97819.09;5066831;28;20127;-60
2022/04/21 11:37:54;;;;;;;6.93;3.08;;;;;;;12.45;47.69;97819.06;5082788;28;20043;-58
2022/04/21 11:40:24;;;;;;;5.90;3.38;;;;;;;12.36;49.40;97814.91;5083177;28;20364;-59
2022/04/21 11:42:49;;;;;;;;;;;;;;;12.45;49.76;97826.91;5083407;28;20058;-58
2022/04/21 11:45:26;;;;;;;7.57;3.08;;;;;;;12.39;50.47;97821.56;5064174;28;19998;-59
2022/04/21 11:47:52;;;;;;;8.15;3.13;;;;;;;12.60;48.07;97813.91;5056299;28;20045;-62
2022/04/21 11:50:23;;;;;;;6.47;3.00;;;;;;;12.65;47.10;97816.78;5065564;28;20053;-60
2022/04/21 11:52:52;;;;;;;7.30;3.20;;;;;;;12.57;49.18;97805.63;5076967;28;20024;-61
2022/04/21 11:55:28;;;;;;;5.97;3.20;;;;;;;12.66;49.17;97823.59;5060453;28;20024;-57
2022/04/21 11:57:55;;;;;;;5.88;3.20;;;;;;;12.56;49.90;97817.84;5059516;28;20032;-57
2022/04/21 12:08:44;;;;;;;9.90;3.88;;;;;;;12.52;50.86;97816.56;5079971;28;20034;-59
2022/04/21 12:11:10;;;;;;;6.15;3.15;;;;;;;12.52;49.61;97818.38;5067302;28;20383;-59
2022/04/21 12:13:36;;;;;;;6.15;3.10;;;;;;;12.70;50.41;97818.84;5064001;28;20071;-58
2022/04/21 12:16:01;;;;;;;6.70;2.97;;;;;;;12.49;50.79;97786.44;5082414;28;20139;-60
2022/04/21 12:18:27;;;;;;;7.25;3.30;;;;;;;12.39;50.36;97770.22;5063326;28;20128;-60
2022/04/21 12:20:55;;;;;;;6.47;3.30;;;;;;;12.71;49.81;97804.03;5059936;28;20028;-58
2022/04/21 12:23:25;;;;;;;10.45;3.72;;;;;;;12.68;51.31;97797.34;5061978;28;20043;-59
2022/04/21 12:25:50;;;;;;;11.43;4.07;;;;;;;12.80;51.28;97803.75;5075664;28;20059;-60
2022/04/21 12:28:16;;;;;;;10.15;3.55;;;;;;;12.82;49.71;97793.16;5076351;28;20092;-60
2022/04/21 12:30:41;;;;;;;8.38;3.53;;;;;;;12.76;49.53;97804.28;5081922;28;20150;-59
2022/04/21 12:33:07;;;;;;;5.82;3.10;;;;;;;12.73;49.68;97802.06;5064401;28;20016;-59
2022/04/21 12:35:46;;;;;;;5.32;2.80;;;;;;;12.72;50.17;97790.78;5058724;28;20027;-61
2022/04/21 12:40:59;;;;;;;6.75;3.45;;;;;;;12.86;48.90;97787.38;5077017;28;20501;-59
2022/04/21 12:43:29;;;;;;;8.02;3.53;;;;;;;12.87;48.36;97785.59;5064688;28;20035;-58
2022/04/21 12:45:55;;;;;;;9.30;4.25;;;;;;;12.85;48.30;97777.94;5061470;28;20035;-60
2022/04/21 12:48:27;;;;;;;9.35;3.95;;;;;;;12.95;49.16;97771.66;5064813;28;20016;-58
2022/04/21 12:50:54;;;;;;;7.85;3.90;;;;;;;12.99;48.61;97763.28;5075476;28;20122;-60
2022/04/21 12:53:32;;;;;;;8.50;4.60;;;;;;;12.97;45.19;97765.25;5070993;28;20056;-59
2022/04/21 12:56:14;;;;;;;10.68;4.70;;;;;;;13.04;45.50;97755.72;5078847;28;20043;-58
2022/04/21 12:58:40;;;;;;;7.72;4.43;;;;;;;13.17;46.67;97751.66;5079073;28;20027;-60
2022/04/21 13:01:06;;;;;;;7.55;4.20;;;;;;;13.14;47.52;97755.47;5081368;28;20374;-58
2022/04/21 13:03:32;;;;;;;8.98;4.43;;;;;;;13.13;48.34;97739.97;5062943;28;20086;-59
2022/04/21 13:05:58;;;;;;;8.93;4.20;;;;;;;13.03;48.88;97701.91;5062565;28;20058;-61
2022/04/21 13:08:27;;;;;;;6.85;4.70;;;;;;;13.24;47.69;97726.44;5073987;28;20027;-60
2022/04/21 13:10:55;;;;;;;8.00;4.53;;;;;;;13.32;47.59;97738.59;5064142;28;20454;-57
2022/04/21 13:13:20;;;;;;;8.05;4.15;;;;;;;13.42;48.08;97733.91;5064079;28;20103;-58
2022/04/21 13:15:47;;;;;;;6.53;4.05;;;;;;;13.51;47.73;97735.41;5078821;28;20035;-59
2022/04/21 13:18:13;;;;;;;7.47;4.28;;;;;;;13.43;46.29;97731.13;5079200;28;20051;-58
2022/04/21 13:23:25;;;;;;;6.57;4.30;;;;;;;13.36;47.21;97721.56;5075885;28;20724;-58
2022/04/21 13:25:51;;;;;;;9.52;4.38;;;;;;;13.24;46.73;97716.00;5062298;28;20024;-58
2022/04/21 13:28:16;;;;;;;7.82;4.75;;;;;;;13.29;47.72;97721.50;5058212;28;20021;-59
2022/04/21 13:30:42;;;;;;;7.95;4.45;;;;;;;13.31;46.97;97714.31;5078789;28;20470;-59
2022/04/21 13:33:23;;;;;;;7.75;4.47;;;;;;;13.02;50.44;97678.63;5078039;28;20027;-58
2022/04/21 13:35:53;;;;;;;7.60;4.43;;;;;;;13.40;50.67;97715.00;5079651;28;20040;-58
2022/04/21 13:38:19;;;;;;;6.60;3.97;;;;;;;13.07;49.25;97658.81;5054811;28;20038;-63
2022/04/21 13:40:44;;;;;;;9.43;4.60;;;;;;;13.41;50.27;97706.16;5086146;28;20023;-61
2022/04/21 13:43:10;;;;;;;7.88;4.30;;;;;;;13.51;51.21;97708.47;5057735;28;20020;-59
2022/04/21 13:45:39;;;;;;;6.32;4.35;;;;;;;13.13;50.18;97661.66;5055320;28;20402;-59
2022/04/21 13:48:07;;;;;;;8.32;4.40;;;;;;;13.36;50.32;97718.97;5080142;28;20193;-61
2022/04/21 13:50:33;;;;;;;7.82;4.60;;;;;;;12.96;49.31;97661.88;5079043;28;20024;-59
2022/04/21 13:52:59;;;;;;;7.78;4.40;;;;;;;12.98;47.14;97657.28;5082499;28;20027;-58
2022/04/21 13:55:25;;;;;;;7.20;4.68;;;;;;;13.25;48.21;97691.50;5065165;28;20063;-58
2022/04/21 13:57:50;;;;;;;8.38;4.93;;;;;;;13.11;47.80;97648.00;5081189;28;20043;-60
2022/04/21 14:00:16;;;;;;;8.57;4.55;;;;;;;13.41;47.78;97687.91;5064030;28;20028;-59
2022/04/21 14:02:41;;;;;;;7.70;4.40;;;;;;;13.46;47.09;97686.34;5080509;28;20016;-59
2022/04/21 14:05:07;;;;;;;8.82;4.78;;;;;;;13.31;47.44;97638.59;5084017;28;20028;-62
2022/04/21 14:07:32;;;;;;;8.40;4.38;;;;;;;13.64;48.09;97680.69;5065809;28;20024;-59
2022/04/21 14:09:58;;;;;;;9.80;4.90;;;;;;;13.71;47.54;97672.09;5066541;28;20058;-58
2022/04/21 14:12:23;;;;;;;11.13;4.63;;;;;;;13.79;47.10;97672.78;5060792;28;20024;-59
2022/04/21 14:14:49;;;;;;;9.52;4.97;;;;;;;13.79;47.22;97679.81;5064831;28;20032;-59
2022/04/21 14:17:15;;;;;;;8.63;4.35;;;;;;;13.88;46.94;97664.81;5082635;28;20028;-59
2022/04/21 14:19:41;;;;;;;8.02;4.75;;;;;;;13.68;46.87;97669.88;5083073;28;20035;-59
2022/04/21 14:22:06;;;;;;;8.10;4.63;;;;;;;13.79;48.60;97661.53;5067032;28;20020;-60
2022/04/21 14:24:32;;;;;;;10.02;4.72;;;;;;;13.78;46.15;97667.75;5077296;28;20162;-59
2022/04/21 14:26:59;;;;;;;8.82;4.35;;;;;;;13.69;46.59;97664.47;5067005;28;20478;-59
2022/04/21 14:29:24;;;;;;;8.82;4.10;;;;;;;13.88;46.61;97668.25;5065046;28;20031;-60
2022/04/21 14:31:50;;;;;;;9.75;4.60;;;;;;;13.73;45.86;97657.88;5084249;28;20517;-58
2022/04/21 14:34:15;;;;;;;8.05;4.45;;;;;;;13.58;46.30;97612.72;5063820;28;20028;-58
2022/04/21 14:36:41;;;;;;;7.18;4.68;;;;;;;13.65;46.07;97617.03;5067402;28;20495;-59
2022/04/21 14:44:36;;;;;;;7.07;4.20;;;;;;;13.67;47.09;97656.00;5083967;28;20126;-59
2022/04/21 14:47:03;;;;;;;8.10;4.35;;;;;;;13.48;47.71;97626.09;5081668;28;20031;-62
2022/04/21 14:49:30;;;;;;;9.27;4.63;;;;;;;13.79;47.08;97658.91;5089931;28;20033;-60
2022/04/21 14:51:55;;;;;;;9.38;4.35;;;;;;;13.75;45.70;97652.47;5082338;28;20020;-62
2022/04/21 14:54:20;;;;;;;7.97;4.50;;;;;;;13.83;47.14;97644.47;5063116;28;20031;-60
2022/04/21 14:56:47;;;;;;;8.73;4.57;;;;;;;13.75;48.99;97645.44;5080846;28;20833;-58
2022/04/21 14:59:13;;;;;;;9.57;4.60;;;;;;;13.70;47.86;97645.19;5065170;28;20024;-60
2022/04/21 15:01:39;;;;;;;8.77;4.28;;;;;;;13.35;48.31;97605.91;5066003;28;20028;-59
2022/04/21 15:04:05;;;;;;;8.27;4.70;;;;;;;13.68;47.79;97649.78;5081912;28;20020;-59
2022/04/21 15:06:31;;;;;;;7.18;4.43;;;;;;;13.51;47.63;97617.06;5066203;28;20076;-59
2022/04/21 15:08:56;;;;;;;7.57;4.65;;;;;;;13.76;47.94;97638.38;5058308;28;20053;-59
2022/04/21 15:11:21;;;;;;;8.82;4.18;;;;;;;13.84;50.17;97631.22;5065202;28;20581;-60
2022/04/21 15:13:47;;;;;;;10.45;4.60;;;;;;;13.88;48.08;97629.03;5077229;28;20059;-59
2022/04/21 15:16:12;;;;;;;8.48;4.53;;;;;;;13.72;46.83;97624.88;5068412;28;20327;-58
2022/04/21 15:18:38;;;;;;;8.82;4.78;;;;;;;13.65;46.51;97624.03;5083774;28;20032;-59
2022/04/21 15:21:04;;;;;;;9.25;4.70;;;;;;;13.62;46.79;97620.00;5082869;28;20364;-59
2022/04/21 15:23:30;;;;;;;6.70;4.10;;;;;;;13.48;50.15;97599.97;5066726;28;20028;-60
2022/04/21 15:25:56;;;;;;;7.28;4.45;;;;;;;13.40;47.76;97584.47;5064646;28;20028;-58
2022/04/21 15:28:22;;;;;;;10.20;4.80;;;;;;;13.62;47.24;97614.78;5060880;28;20784;-60
2022/04/21 15:30:48;;;;;;;9.23;4.95;;;;;;;13.51;47.53;97611.84;5066083;28;20039;-59
2022/04/21 15:33:14;;;;;;;8.30;4.25;;;;;;;13.56;46.47;97597.25;5063067;28;20036;-60
2022/04/21 15:35:41;;;;;;;6.63;4.40;;;;;;;13.65;49.51;97598.75;5082610;28;20388;-58
2022/04/21 15:38:07;;;;;;;8.82;4.35;;;;;;;13.71;48.52;97605.00;5081388;28;20034;-59
2022/04/21 15:40:35;;;;;;;10.13;4.60;;;;;;;13.82;49.54;97607.09;5063661;28;20107;-59
2022/04/21 15:43:00;;;;;;;8.73;4.85;;;;;;;13.77;50.15;97596.41;5082797;28;20028;-61
2022/04/21 15:45:25;;;;;;;9.02;4.78;;;;;;;13.82;49.88;97591.41;5054211;28;20368;-58
2022/04/21 15:47:51;;;;;;;11.80;5.20;;;;;;;13.91;50.03;97596.47;5082974;28;20042;-60
2022/04/21 15:50:16;;;;;;;8.93;5.03;;;;;;;13.88;52.81;97595.06;5083547;28;20105;-58
2022/04/21 15:52:42;;;;;;;7.40;4.40;;;;;;;13.90;50.39;97597.50;5065750;28;20478;-59
2022/04/21 16:00:37;;;;;;;7.25;4.72;;;;;;;13.79;52.85;97591.00;5082584;28;20039;-61
2022/04/21 16:03:03;;;;;;;8.25;5.00;;;;;;;13.60;49.94;97582.03;5064263;28;20143;-59
2022/04/21 16:05:30;;;;;;;10.00;4.47;;;;;;;13.71;50.19;97585.88;5064828;28;20105;-62
2022/04/21 16:07:56;;;;;;;8.98;4.68;;;;;;;13.81;52.70;97581.94;5064636;28;20027;-58
2022/04/21 16:10:22;;;;;;;9.27;4.60;;;;;;;13.76;55.84;97584.34;5082372;28;20028;-61
2022/04/21 16:12:47;;;;;;;9.15;5.00;;;;;;;13.58;53.02;97545.63;5059574;28;20039;-59
2022/04/21 16:15:13;;;;;;;8.05;4.90;;;;;;;13.67;51.89;97555.94;5058689;28;20028;-60
2022/04/21 16:17:38;;;;;;;8.18;5.13;;;;;;;13.85;53.06;97574.53;5077178;28;20031;-61
2022/04/21 16:20:05;;;;;;;8.95;4.75;;;;;;;13.78;53.65;97573.69;5090489;28;20550;-60
2022/04/21 16:22:32;;;;;;;7.75;4.65;;;;;;;13.71;51.33;97571.03;5096978;28;20801;-59
2022/04/21 16:24:58;;;;;;;6.20;4.38;;;;;;;13.71;51.46;97570.22;5077331;28;20020;-58
2022/04/21 16:27:24;;;;;;;9.93;4.68;;;;;;;13.80;51.39;97577.75;5079676;28;20085;-58
2022/04/21 16:29:49;;;;;;;7.50;4.57;;;;;;;13.83;49.43;97574.72;5061182;28;20380;-62
2022/04/21 16:32:14;;;;;;;7.93;4.72;;;;;;;13.82;50.16;97582.78;5062954;28;20522;-59
2022/04/21 16:34:40;;;;;;;10.68;4.82;;;;;;;13.77;49.27;97572.09;5064800;28;20479;-62
2022/04/21 16:37:06;;;;;;;8.57;4.40;;;;;;;13.76;48.58;97570.47;5062304;28;20475;-60
2022/04/21 16:39:31;;;;;;;7.72;5.15;;;;;;;13.76;50.30;97570.47;5080597;28;20474;-59
2022/04/21 16:41:57;;;;;;;8.93;4.57;;;;;;;13.50;52.07;97531.91;5079602;28;20118;-63
2022/04/21 16:44:22;;;;;;;9.00;4.25;;;;;;;13.70;49.46;97555.56;5063918;28;20028;-58
2022/04/21 16:46:49;;;;;;;8.38;4.65;;;;;;;13.61;47.61;97563.53;5072761;28;20035;-60
2022/04/21 16:49:14;;;;;;;9.35;4.78;;;;;;;13.63;47.85;97564.16;5087226;28;20081;-59
2022/04/21 16:51:40;;;;;;;10.00;4.88;;;;;;;13.33;49.51;97516.53;5065770;28;20433;-60
2022/04/21 16:54:05;;;;;;;7.43;4.70;;;;;;;13.69;49.35;97559.16;5080469;28;20032;-59
2022/04/21 16:56:31;;;;;;;7.82;4.70;;;;;;;13.45;48.39;97535.06;5063720;28;20032;-57
2022/04/21 16:58:57;;;;;;;7.88;4.95;;;;;;;13.63;48.31;97556.34;5078308;28;20210;-59
